Time;durP1;ratioP1;P1;durP2;ratioP2;P2;SDS_P1;SDS_P2;PMS_P1;PMS_P2;Temp;Humidity;BMP_temperature;BMP_pressure;BME280_temperature;BME280_humidity;BME280_pressure;Samples;Min_cycle;Max_cycle;Signal;HPM_P1;HPM_P2
2021/08/29 00:01:09;;;;;;;1;1;;;;;;;;;;;;;
2021/08/29 00:03:34;;;;;;;1.8;1.2;;;;;;;;;;;;;
2021/08/29 00:05:59;;;;;;;0.9;0.9;;;;;;;;;;;;;
2021/08/29 00:08:24;;;;;;;1.1;1;;;;;;;;;;;;;
2021/08/29 00:10:49;;;;;;;1.9;0.9;;;;;;;;;;;;;
2021/08/29 00:13:14;;;;;;;1.2;0.9;;;;;;;;;;;;;
2021/08/29 00:15:40;;;;;;;1.7;1;;;;;;;;;;;;;
2021/08/29 00:18:04;;;;;;;1.7;1.1;;;;;;;;;;;;;
2021/08/29 00:20:29;;;;;;;2.7;1.2;;;;;;;;;;;;;
2021/08/29 00:22:55;;;;;;;1.1;1;;;;;;;;;;;;;
2021/08/29 00:25:20;;;;;;;3.3;1.3;;;;;;;;;;;;;
2021/08/29 00:27:45;;;;;;;2;1.2;;;;;;;;;;;;;
2021/08/29 00:30:10;;;;;;;2.6;1.3;;;;;;;;;;;;;
2021/08/29 00:32:35;;;;;;;1.2;1.1;;;;;;;;;;;;;
2021/08/29 00:35:00;;;;;;;2;1;;;;;;;;;;;;;
2021/08/29 00:37:25;;;;;;;1.1;1;;;;;;;;;;;;;
2021/08/29 00:39:51;;;;;;;1.3;1;;;;;;;;;;;;;
2021/08/29 00:42:16;;;;;;;1.4;1.3;;;;;;;;;;;;;
2021/08/29 00:44:41;;;;;;;1.5;1.2;;;;;;;;;;;;;
2021/08/29 00:47:06;;;;;;;3.6;1.4;;;;;;;;;;;;;
2021/08/29 00:49:31;;;;;;;1.3;1.1;;;;;;;;;;;;;
2021/08/29 00:51:57;;;;;;;1.6;1.3;;;;;;;;;;;;;
2021/08/29 00:54:22;;;;;;;1.1;1;;;;;;;;;;;;;
2021/08/29 00:56:48;;;;;;;1;0.9;;;;;;;;;;;;;
2021/08/29 00:59:13;;;;;;;1.3;1.2;;;;;;;;;;;;;
2021/08/29 01:01:39;;;;;;;1;0.9;;;;;;;;;;;;;
2021/08/29 01:04:03;;;;;;;0.7;0.7;;;;;;;;;;;;;
2021/08/29 01:06:28;;;;;;;1.1;0.9;;;;;;;;;;;;;
2021/08/29 01:08:53;;;;;;;1.1;1;;;;;;;;;;;;;
2021/08/29 01:11:19;;;;;;;1.2;1.1;;;;;;;;;;;;;
2021/08/29 01:13:44;;;;;;;1.2;1.1;;;;;;;;;;;;;
2021/08/29 01:16:09;;;;;;;4.7;1.2;;;;;;;;;;;;;
2021/08/29 01:18:34;;;;;;;1.1;0.9;;;;;;;;;;;;;
2021/08/29 01:20:59;;;;;;;1;0.9;;;;;;;;;;;;;
2021/08/29 01:23:24;;;;;;;1.4;1;;;;;;;;;;;;;
2021/08/29 01:25:49;;;;;;;0.9;0.9;;;;;;;;;;;;;
2021/08/29 01:28:15;;;;;;;0.9;0.9;;;;;;;;;;;;;
2021/08/29 01:30:40;;;;;;;0.9;0.9;;;;;;;;;;;;;
2021/08/29 01:33:06;;;;;;;0.8;0.8;;;;;;;;;;;;;
2021/08/29 01:35:30;;;;;;;0.7;0.7;;;;;;;;;;;;;
2021/08/29 01:37:55;;;;;;;0.7;0.7;;;;;;;;;;;;;
2021/08/29 01:40:20;;;;;;;0.8;0.8;;;;;;;;;;;;;
2021/08/29 01:42:45;;;;;;;0.9;0.9;;;;;;;;;;;;;
2021/08/29 01:45:10;;;;;;;0.8;0.8;;;;;;;;;;;;;
2021/08/29 01:47:35;;;;;;;1.1;0.8;;;;;;;;;;;;;
2021/08/29 01:50:01;;;;;;;2.6;1.1;;;;;;;;;;;;;
2021/08/29 01:52:25;;;;;;;1;0.7;;;;;;;;;;;;;
2021/08/29 01:54:51;;;;;;;0.7;0.7;;;;;;;;;;;;;
2021/08/29 01:57:16;;;;;;;0.6;0.6;;;;;;;;;;;;;
2021/08/29 01:59:42;;;;;;;0.8;0.8;;;;;;;;;;;;;
2021/08/29 02:02:06;;;;;;;0.8;0.8;;;;;;;;;;;;;
2021/08/29 02:04:31;;;;;;;0.8;0.8;;;;;;;;;;;;;
2021/08/29 02:06:56;;;;;;;0.6;0.6;;;;;;;;;;;;;
2021/08/29 02:09:21;;;;;;;0.6;0.6;;;;;;;;;;;;;
2021/08/29 02:11:47;;;;;;;0.9;0.8;;;;;;;;;;;;;
2021/08/29 02:14:12;;;;;;;1.2;0.7;;;;;;;;;;;;;
2021/08/29 02:16:37;;;;;;;0.8;0.8;;;;;;;;;;;;;
2021/08/29 02:19:02;;;;;;;0.7;0.7;;;;;;;;;;;;;
2021/08/29 02:21:28;;;;;;;1.3;1;;;;;;;;;;;;;
2021/08/29 02:23:52;;;;;;;1.1;0.9;;;;;;;;;;;;;
2021/08/29 02:26:18;;;;;;;0.9;0.8;;;;;;;;;;;;;
2021/08/29 02:28:43;;;;;;;1.1;0.8;;;;;;;;;;;;;
2021/08/29 02:31:08;;;;;;;0.8;0.8;;;;;;;;;;;;;
2021/08/29 02:33:33;;;;;;;1.1;0.9;;;;;;;;;;;;;
2021/08/29 02:35:58;;;;;;;0.9;0.9;;;;;;;;;;;;;
2021/08/29 02:38:23;;;;;;;1.4;0.8;;;;;;;;;;;;;
2021/08/29 02:40:48;;;;;;;0.8;0.8;;;;;;;;;;;;;
2021/08/29 02:43:13;;;;;;;1;0.9;;;;;;;;;;;;;
2021/08/29 02:45:38;;;;;;;0.7;0.7;;;;;;;;;;;;;
2021/08/29 02:48:03;;;;;;;0.6;0.6;;;;;;;;;;;;;
2021/08/29 02:50:29;;;;;;;0.7;0.7;;;;;;;;;;;;;
2021/08/29 02:52:54;;;;;;;0.7;0.7;;;;;;;;;;;;;
2021/08/29 02:55:19;;;;;;;0.7;0.7;;;;;;;;;;;;;
2021/08/29 02:57:44;;;;;;;1.1;0.7;;;;;;;;;;;;;
2021/08/29 03:00:09;;;;;;;0.7;0.7;;;;;;;;;;;;;
2021/08/29 03:02:34;;;;;;;0.8;0.8;;;;;;;;;;;;;
2021/08/29 03:04:59;;;;;;;0.6;0.6;;;;;;;;;;;;;
2021/08/29 03:07:24;;;;;;;0.6;0.6;;;;;;;;;;;;;
2021/08/29 03:09:50;;;;;;;0.6;0.6;;;;;;;;;;;;;
2021/08/29 03:12:15;;;;;;;0.6;0.6;;;;;;;;;;;;;
2021/08/29 03:14:40;;;;;;;1;0.8;;;;;;;;;;;;;
2021/08/29 03:17:05;;;;;;;0.5;0.5;;;;;;;;;;;;;
2021/08/29 03:19:30;;;;;;;0.7;0.7;;;;;;;;;;;;;
2021/08/29 03:21:55;;;;;;;0.8;0.8;;;;;;;;;;;;;
2021/08/29 03:24:21;;;;;;;0.9;0.9;;;;;;;;;;;;;
2021/08/29 03:26:46;;;;;;;0.7;0.7;;;;;;;;;;;;;
2021/08/29 03:29:11;;;;;;;0.8;0.8;;;;;;;;;;;;;
2021/08/29 03:31:36;;;;;;;0.9;0.8;;;;;;;;;;;;;
2021/08/29 03:34:01;;;;;;;1;1;;;;;;;;;;;;;
2021/08/29 03:36:26;;;;;;;0.8;0.8;;;;;;;;;;;;;
2021/08/29 03:38:52;;;;;;;0.7;0.7;;;;;;;;;;;;;
2021/08/29 03:41:16;;;;;;;0.9;0.9;;;;;;;;;;;;;
2021/08/29 03:43:42;;;;;;;1.2;1.1;;;;;;;;;;;;;
2021/08/29 03:46:07;;;;;;;1;1;;;;;;;;;;;;;
2021/08/29 03:48:32;;;;;;;1;1;;;;;;;;;;;;;
2021/08/29 03:50:57;;;;;;;1.1;1;;;;;;;;;;;;;
2021/08/29 03:53:22;;;;;;;0.8;0.8;;;;;;;;;;;;;
2021/08/29 03:55:47;;;;;;;0.6;0.6;;;;;;;;;;;;;
2021/08/29 03:58:13;;;;;;;0.5;0.5;;;;;;;;;;;;;
2021/08/29 04:02:31;;;;;;;0.5;0.5;;;;;;;11.36;95.9873;938.1585;;;;
2021/08/29 04:04:56;;;;;;;0.9;0.8;;;;;;;11.37;95.75098;938.1395;;;;
2021/08/29 04:07:21;;;;;;;1;0.9;;;;;;;11.53;94.82324;938.1606;;;;
2021/08/29 04:09:58;;;;;;;1.5;0.8;;;;;;;11.56;94.33887;938.1552;;;;
2021/08/29 04:12:23;;;;;;;0.8;0.8;;;;;;;11.5;94.02734;938.0862;;;;
2021/08/29 04:14:48;;;;;;;7.2;5.3;;;;;;;11.46;94.40723;938.1188;;;;
2021/08/29 04:17:13;;;;;;;1.3;1.2;;;;;;;11.41;94.74023;938.0656;;;;
2021/08/29 04:19:38;;;;;;;1.6;1.1;;;;;;;11.46;94.42969;938.0861;;;;
2021/08/29 04:22:03;;;;;;;0.8;0.7;;;;;;;11.52;93.6543;938.0823;;;;
2021/08/29 04:24:28;;;;;;;1.1;0.7;;;;;;;11.51;93.70898;938.033;;;;
2021/08/29 04:26:54;;;;;;;0.7;0.7;;;;;;;11.49;93.86719;938.0575;;;;
2021/08/29 04:29:19;;;;;;;1.3;0.7;;;;;;;11.45;94.06152;938.0661;;;;
2021/08/29 04:31:44;;;;;;;1.5;0.9;;;;;;;11.26;94.51465;938.0447;;;;
2021/08/29 04:34:09;;;;;;;0.7;0.7;;;;;;;11.29;94.61133;938.0672;;;;
2021/08/29 04:36:36;;;;;;;0.9;0.8;;;;;;;11.32;94.64063;938.0292;;;;
2021/08/29 04:39:01;;;;;;;0.7;0.7;;;;;;;11.3;94.60254;938.0505;;;;
2021/08/29 04:41:26;;;;;;;0.6;0.6;;;;;;;11.37;94.84473;938.0167;;;;
2021/08/29 04:43:52;;;;;;;1.7;1.1;;;;;;;11.37;95.26855;938.0183;;;;
2021/08/29 04:46:17;;;;;;;0.7;0.7;;;;;;;11.45;95.29785;938.0884;;;;
2021/08/29 04:48:43;;;;;;;1;0.8;;;;;;;11.54;94.24121;938.1152;;;;
2021/08/29 04:51:08;;;;;;;0.8;0.8;;;;;;;11.41;94.24805;938.1078;;;;
2021/08/29 04:53:33;;;;;;;0.8;0.8;;;;;;;11.47;94.62793;938.1323;;;;
2021/08/29 04:55:58;;;;;;;1.8;1.6;;;;;;;11.46;94.48926;938.1085;;;;
2021/08/29 04:58:24;;;;;;;4.2;2.4;;;;;;;11.48;94.85938;938.1213;;;;
2021/08/29 05:00:50;;;;;;;1.9;1.5;;;;;;;11.59;94.41406;938.1458;;;;
2021/08/29 05:03:15;;;;;;;2;1.5;;;;;;;11.67;94.56641;938.1321;;;;
2021/08/29 05:05:40;;;;;;;1.7;1.5;;;;;;;11.58;94.37695;938.1465;;;;
2021/08/29 05:08:06;;;;;;;1.4;1.3;;;;;;;11.61;94.68066;938.1523;;;;
2021/08/29 05:10:44;;;;;;;1.4;1.3;;;;;;;11.65;93.8877;938.2117;;;;
2021/08/29 05:13:10;;;;;;;1.4;1.3;;;;;;;11.67;94.4541;938.2374;;;;
2021/08/29 05:15:35;;;;;;;6.5;3.6;;;;;;;11.64;94.62012;938.1942;;;;
2021/08/29 05:18:01;;;;;;;2.1;1.5;;;;;;;11.47;95.78418;938.1866;;;;
2021/08/29 05:20:27;;;;;;;1.3;1.2;;;;;;;11.38;96.31348;938.1873;;;;
2021/08/29 05:22:52;;;;;;;1.4;1.3;;;;;;;11.37;96.19727;938.1434;;;;
2021/08/29 05:25:40;;;;;;;1.8;1.7;;;;;;;11.39;96.16406;938.1635;;;;
2021/08/29 05:28:06;;;;;;;1.5;1.1;;;;;;;11.42;95.33691;938.164;;;;
2021/08/29 05:32:56;;;;;;;0.8;0.8;;;;;;;11.5;94.50879;938.1613;;;;
2021/08/29 05:35:39;;;;;;;1.4;1;;;;;;;11.5;94.31348;938.1955;;;;
2021/08/29 05:38:05;;;;;;;2.4;1.2;;;;;;;11.72;94.30371;938.1116;;;;
2021/08/29 05:40:30;;;;;;;1.9;1.1;;;;;;;11.85;94.41504;938.1766;;;;
2021/08/29 05:43:16;;;;;;;1.4;0.8;;;;;;;12;92.69434;938.1054;;;;
2021/08/29 05:46:20;;;;;;;0.8;0.8;;;;;;;11.99;91.87695;938.1612;;;;
2021/08/29 05:48:49;;;;;;;0.9;0.9;;;;;;;11.94;92.64453;938.0636;;;;
2021/08/29 05:51:11;;;;;;;1.4;0.9;;;;;;;12.06;92.32715;938.1666;;;;
2021/08/29 05:53:38;;;;;;;0.8;0.8;;;;;;;11.99;91.52344;938.1492;;;;
2021/08/29 05:56:03;;;;;;;0.8;0.8;;;;;;;12.03;92.25293;938.0867;;;;
2021/08/29 05:58:30;;;;;;;1;1;;;;;;;12.13;92.45703;938.1061;;;;
2021/08/29 06:00:55;;;;;;;1.5;1.3;;;;;;;12.17;91.88086;938.0743;;;;
2021/08/29 06:03:20;;;;;;;2.5;1.7;;;;;;;12.28;90.43652;938.1005;;;;
2021/08/29 06:05:50;;;;;;;2.6;2.3;;;;;;;12.16;90.22852;938.1086;;;;
2021/08/29 06:08:16;;;;;;;3.1;2.8;;;;;;;12.16;90.38867;938.0335;;;;
2021/08/29 06:10:41;;;;;;;2.6;2.2;;;;;;;12.2;90.25879;937.9889;;;;
2021/08/29 06:13:06;;;;;;;1.5;1.4;;;;;;;11.89;90.83594;938.0778;;;;
2021/08/29 06:15:31;;;;;;;2.1;1.9;;;;;;;11.99;92.26855;938.0567;;;;
2021/08/29 06:17:56;;;;;;;1.7;1.5;;;;;;;12.08;92.32129;938.0613;;;;
2021/08/29 06:20:25;;;;;;;1.4;0.9;;;;;;;12.17;90.35645;938.0312;;;;
2021/08/29 06:22:48;;;;;;;0.9;0.9;;;;;;;12.14;89.91504;938.0367;;;;
2021/08/29 06:25:14;;;;;;;0.7;0.7;;;;;;;12.16;90.46875;938.0192;;;;
2021/08/29 06:27:39;;;;;;;0.8;0.8;;;;;;;12.18;91.19531;937.9938;;;;
2021/08/29 06:30:04;;;;;;;0.9;0.9;;;;;;;12.11;92.21094;937.9998;;;;
2021/08/29 06:32:30;;;;;;;1.1;0.9;;;;;;;12.13;92.65234;937.9641;;;;
2021/08/29 06:34:55;;;;;;;0.8;0.8;;;;;;;12.12;92.54688;937.9664;;;;
2021/08/29 06:37:20;;;;;;;0.9;0.9;;;;;;;12.01;92.14551;937.9258;;;;
2021/08/29 06:39:45;;;;;;;0.7;0.7;;;;;;;12;92.37305;937.9609;;;;
2021/08/29 06:42:10;;;;;;;1.1;0.7;;;;;;;11.98;91.37109;937.9058;;;;
2021/08/29 06:44:36;;;;;;;1;0.8;;;;;;;11.87;91.8877;937.9725;;;;
2021/08/29 06:47:01;;;;;;;1.4;0.9;;;;;;;11.74;92.96973;937.9394;;;;
2021/08/29 06:49:26;;;;;;;1.1;0.8;;;;;;;11.84;93.08301;938.0034;;;;
2021/08/29 06:51:52;;;;;;;1;1;;;;;;;11.98;93.24023;937.901;;;;
2021/08/29 06:54:17;;;;;;;2.7;1.9;;;;;;;11.98;92.21875;937.8938;;;;
2021/08/29 06:56:42;;;;;;;2;1.3;;;;;;;11.97;92.59668;937.972;;;;
2021/08/29 06:59:07;;;;;;;1.4;0.7;;;;;;;12.07;92.84473;937.9886;;;;
2021/08/29 07:01:33;;;;;;;1;0.9;;;;;;;12.19;92.68652;938.0033;;;;
2021/08/29 07:03:58;;;;;;;1.2;1;;;;;;;12.29;92.38672;938.0014;;;;
2021/08/29 07:06:23;;;;;;;1.4;0.8;;;;;;;12.3;92.16113;937.9832;;;;
2021/08/29 07:08:48;;;;;;;0.8;0.8;;;;;;;12.29;91.67773;937.9344;;;;
2021/08/29 07:11:13;;;;;;;0.9;0.8;;;;;;;12.28;91.80078;937.8569;;;;
2021/08/29 07:13:39;;;;;;;0.9;0.9;;;;;;;12.16;90.93848;937.8508;;;;
2021/08/29 07:16:04;;;;;;;1.5;1.3;;;;;;;12.25;92.32031;937.8273;;;;
2021/08/29 07:18:30;;;;;;;1;0.8;;;;;;;12.35;91.23047;937.7908;;;;
2021/08/29 07:20:56;;;;;;;1.1;1;;;;;;;12.34;90.94238;937.8139;;;;
2021/08/29 07:23:22;;;;;;;3.8;2.1;;;;;;;12.42;90.45508;937.7401;;;;
2021/08/29 07:25:47;;;;;;;0.7;0.7;;;;;;;12.53;89.86914;937.812;;;;
2021/08/29 07:28:12;;;;;;;1.2;1.1;;;;;;;12.47;89.5127;937.8304;;;;
2021/08/29 07:30:37;;;;;;;1.9;1.3;;;;;;;12.56;90.28809;937.9303;;;;
2021/08/29 07:33:02;;;;;;;1.2;0.9;;;;;;;12.58;89.19238;937.8672;;;;
2021/08/29 07:35:27;;;;;;;3.1;2.2;;;;;;;12.44;89.36914;937.9398;;;;
2021/08/29 07:37:53;;;;;;;2.8;1.8;;;;;;;12.34;89.94531;937.9417;;;;
2021/08/29 07:40:19;;;;;;;2.2;1.8;;;;;;;12.45;90.37012;937.9973;;;;
2021/08/29 07:42:43;;;;;;;1;1;;;;;;;12.54;90.00879;937.9431;;;;
2021/08/29 07:45:08;;;;;;;1.2;1.1;;;;;;;12.64;89.60547;937.9011;;;;
2021/08/29 07:47:39;;;;;;;1.4;1.3;;;;;;;12.66;90.40039;937.9498;;;;
2021/08/29 07:50:05;;;;;;;1.2;1.1;;;;;;;12.92;88.79004;937.9542;;;;
2021/08/29 07:52:30;;;;;;;1.5;1;;;;;;;12.87;87.10547;937.9542;;;;
2021/08/29 07:54:55;;;;;;;1;0.9;;;;;;;12.74;88.50293;937.8828;;;;
2021/08/29 07:58:34;;;;;;;1.3;1;;;;;;;12.74;89.71777;937.886;;;;
2021/08/29 08:01:32;;;;;;;1.7;1.2;;;;;;;12.79;90.46289;937.9012;;;;
2021/08/29 08:03:58;;;;;;;2;1.2;;;;;;;12.97;89.82129;937.8935;;;;
2021/08/29 08:06:23;;;;;;;2;1.1;;;;;;;13.03;87.76758;937.8794;;;;
2021/08/29 08:08:49;;;;;;;0.7;0.7;;;;;;;13.16;88.01074;937.7849;;;;
2021/08/29 08:11:14;;;;;;;1.4;0.8;;;;;;;13.35;87.45508;937.9059;;;;
2021/08/29 08:13:39;;;;;;;0.5;0.5;;;;;;;13.41;84.5127;937.8865;;;;
2021/08/29 08:16:05;;;;;;;0.8;0.8;;;;;;;13.34;85.2666;937.8387;;;;
2021/08/29 08:18:30;;;;;;;0.6;0.6;;;;;;;13.42;85.13477;937.8221;;;;
2021/08/29 08:20:58;;;;;;;0.9;0.7;;;;;;;13.68;86.81934;937.8481;;;;
2021/08/29 08:23:23;;;;;;;0.8;0.7;;;;;;;13.59;85.5918;937.8537;;;;
2021/08/29 08:25:48;;;;;;;1.3;0.5;;;;;;;13.76;84.87793;937.8286;;;;
2021/08/29 08:28:13;;;;;;;1.2;0.7;;;;;;;;;;;;;
2021/08/29 08:30:38;;;;;;;0.9;0.6;;;;;;;;;;;;;
2021/08/29 08:33:23;;;;;;;0.7;0.5;;;;;;;;;;;;;
2021/08/29 08:35:40;;;;;;;0.5;0.5;;;;;;;;;;;;;
2021/08/29 08:38:04;;;;;;;0.4;0.4;;;;;;;;;;;;;
2021/08/29 08:40:29;;;;;;;0.4;0.4;;;;;;;;;;;;;
2021/08/29 08:42:54;;;;;;;0.6;0.6;;;;;;;;;;;;;
2021/08/29 08:45:20;;;;;;;0.3;0.3;;;;;;;;;;;;;
2021/08/29 08:47:44;;;;;;;0.4;0.4;;;;;;;;;;;;;
2021/08/29 08:50:09;;;;;;;0.5;0.4;;;;;;;;;;;;;
2021/08/29 08:52:35;;;;;;;1;0.5;;;;;;;;;;;;;
2021/08/29 08:55:00;;;;;;;1.2;0.6;;;;;;;;;;;;;
2021/08/29 08:57:26;;;;;;;0.4;0.4;;;;;;;;;;;;;
2021/08/29 08:59:51;;;;;;;1;0.6;;;;;;;;;;;;;
2021/08/29 09:02:17;;;;;;;0.7;0.6;;;;;;;;;;;;;
2021/08/29 09:04:41;;;;;;;0.6;0.6;;;;;;;;;;;;;
2021/08/29 09:07:07;;;;;;;1.2;0.5;;;;;;;;;;;;;
2021/08/29 09:09:31;;;;;;;0.8;0.8;;;;;;;;;;;;;
2021/08/29 09:11:57;;;;;;;0.7;0.7;;;;;;;;;;;;;
2021/08/29 09:14:21;;;;;;;0.8;0.7;;;;;;;;;;;;;
2021/08/29 09:16:46;;;;;;;0.6;0.6;;;;;;;;;;;;;
2021/08/29 09:19:11;;;;;;;0.8;0.8;;;;;;;;;;;;;
2021/08/29 09:21:36;;;;;;;0.6;0.6;;;;;;;;;;;;;
2021/08/29 09:24:01;;;;;;;0.5;0.5;;;;;;;;;;;;;
2021/08/29 09:26:27;;;;;;;0.4;0.4;;;;;;;;;;;;;
2021/08/29 09:28:52;;;;;;;0.7;0.7;;;;;;;;;;;;;
2021/08/29 09:31:18;;;;;;;0.5;0.5;;;;;;;;;;;;;
2021/08/29 09:33:43;;;;;;;0.4;0.4;;;;;;;;;;;;;
2021/08/29 09:36:08;;;;;;;0.7;0.6;;;;;;;;;;;;;
2021/08/29 09:38:33;;;;;;;0.5;0.5;;;;;;;;;;;;;
2021/08/29 09:40:58;;;;;;;0.6;0.5;;;;;;;;;;;;;
2021/08/29 09:43:23;;;;;;;0.7;0.5;;;;;;;;;;;;;
2021/08/29 09:45:48;;;;;;;1.5;0.5;;;;;;;;;;;;;
2021/08/29 09:48:14;;;;;;;0.5;0.5;;;;;;;;;;;;;
2021/08/29 09:50:40;;;;;;;0.6;0.6;;;;;;;;;;;;;
2021/08/29 09:53:04;;;;;;;0.6;0.6;;;;;;;;;;;;;
2021/08/29 09:55:29;;;;;;;1.1;0.8;;;;;;;;;;;;;
2021/08/29 09:57:55;;;;;;;1.1;1;;;;;;;;;;;;;
2021/08/29 10:00:20;;;;;;;1;0.9;;;;;;;;;;;;;
2021/08/29 10:02:45;;;;;;;1.1;0.9;;;;;;;;;;;;;
2021/08/29 10:05:10;;;;;;;0.7;0.7;;;;;;;;;;;;;
2021/08/29 10:07:35;;;;;;;0.9;0.9;;;;;;;;;;;;;
2021/08/29 10:10:00;;;;;;;1.1;0.9;;;;;;;;;;;;;
2021/08/29 10:12:25;;;;;;;1;0.9;;;;;;;;;;;;;
2021/08/29 10:14:51;;;;;;;0.8;0.8;;;;;;;;;;;;;
2021/08/29 10:17:16;;;;;;;1.4;1.1;;;;;;;;;;;;;
2021/08/29 10:19:41;;;;;;;1;1;;;;;;;;;;;;;
2021/08/29 10:22:06;;;;;;;1;1;;;;;;;;;;;;;
2021/08/29 10:24:31;;;;;;;1.3;1.2;;;;;;;;;;;;;
2021/08/29 10:26:57;;;;;;;1.1;1;;;;;;;;;;;;;
2021/08/29 10:29:22;;;;;;;1;1;;;;;;;;;;;;;
2021/08/29 10:31:47;;;;;;;1.1;0.9;;;;;;;;;;;;;
2021/08/29 10:34:12;;;;;;;1.4;0.7;;;;;;;;;;;;;
2021/08/29 10:36:37;;;;;;;0.7;0.6;;;;;;;;;;;;;
2021/08/29 10:39:02;;;;;;;0.4;0.4;;;;;;;;;;;;;
2021/08/29 10:41:27;;;;;;;0.6;0.6;;;;;;;;;;;;;
2021/08/29 10:43:53;;;;;;;0.7;0.6;;;;;;;;;;;;;
2021/08/29 10:46:19;;;;;;;0.7;0.7;;;;;;;;;;;;;
2021/08/29 10:48:43;;;;;;;1;0.9;;;;;;;;;;;;;
2021/08/29 10:51:08;;;;;;;1;0.9;;;;;;;;;;;;;
2021/08/29 10:53:33;;;;;;;0.6;0.5;;;;;;;;;;;;;
2021/08/29 10:55:58;;;;;;;0.7;0.7;;;;;;;;;;;;;
2021/08/29 10:58:23;;;;;;;0.7;0.7;;;;;;;;;;;;;
2021/08/29 11:00:48;;;;;;;0.6;0.6;;;;;;;;;;;;;
2021/08/29 11:03:13;;;;;;;0.4;0.4;;;;;;;;;;;;;
2021/08/29 11:05:39;;;;;;;0.6;0.6;;;;;;;;;;;;;
2021/08/29 11:08:04;;;;;;;0.5;0.5;;;;;;;;;;;;;
2021/08/29 11:10:29;;;;;;;0.6;0.6;;;;;;;;;;;;;
2021/08/29 11:12:54;;;;;;;0.5;0.5;;;;;;;;;;;;;
2021/08/29 11:15:19;;;;;;;0.5;0.5;;;;;;;;;;;;;
2021/08/29 11:17:44;;;;;;;0.9;0.8;;;;;;;;;;;;;
2021/08/29 11:20:10;;;;;;;0.6;0.6;;;;;;;;;;;;;
2021/08/29 11:22:35;;;;;;;0.6;0.6;;;;;;;;;;;;;
2021/08/29 11:25:00;;;;;;;0.7;0.5;;;;;;;;;;;;;
2021/08/29 11:27:25;;;;;;;0.7;0.7;;;;;;;;;;;;;
2021/08/29 11:29:53;;;;;;;0.7;0.7;;;;;;;;;;;;;
2021/08/29 11:32:16;;;;;;;0.8;0.7;;;;;;;;;;;;;
2021/08/29 11:34:41;;;;;;;0.8;0.7;;;;;;;;;;;;;
2021/08/29 11:37:12;;;;;;;0.5;0.5;;;;;;;;;;;;;
2021/08/29 11:39:37;;;;;;;0.6;0.6;;;;;;;;;;;;;
2021/08/29 11:42:02;;;;;;;0.5;0.5;;;;;;;;;;;;;
2021/08/29 11:44:27;;;;;;;0.4;0.4;;;;;;;;;;;;;
2021/08/29 11:46:52;;;;;;;0.9;0.6;;;;;;;;;;;;;
2021/08/29 11:49:17;;;;;;;0.4;0.4;;;;;;;;;;;;;
2021/08/29 11:51:43;;;;;;;0.6;0.6;;;;;;;;;;;;;
2021/08/29 11:54:07;;;;;;;0.5;0.5;;;;;;;;;;;;;
2021/08/29 11:56:34;;;;;;;1.5;0.8;;;;;;;;;;;;;
2021/08/29 11:59:00;;;;;;;0.6;0.6;;;;;;;;;;;;;
2021/08/29 12:01:23;;;;;;;0.5;0.5;;;;;;;;;;;;;
2021/08/29 12:03:48;;;;;;;1.1;0.6;;;;;;;;;;;;;
2021/08/29 12:06:13;;;;;;;0.7;0.7;;;;;;;;;;;;;
2021/08/29 12:08:39;;;;;;;0.7;0.7;;;;;;;;;;;;;
2021/08/29 12:11:04;;;;;;;0.8;0.8;;;;;;;;;;;;;
2021/08/29 12:13:29;;;;;;;0.6;0.6;;;;;;;;;;;;;
2021/08/29 12:15:55;;;;;;;0.7;0.7;;;;;;;;;;;;;
2021/08/29 12:18:19;;;;;;;0.9;0.9;;;;;;;;;;;;;
2021/08/29 12:20:45;;;;;;;1.4;0.8;;;;;;;;;;;;;
2021/08/29 12:23:09;;;;;;;0.7;0.7;;;;;;;;;;;;;
2021/08/29 12:25:34;;;;;;;0.6;0.6;;;;;;;;;;;;;
2021/08/29 12:28:00;;;;;;;0.9;0.6;;;;;;;;;;;;;
2021/08/29 12:30:25;;;;;;;0.7;0.6;;;;;;;;;;;;;
2021/08/29 12:32:50;;;;;;;1;0.6;;;;;;;;;;;;;
2021/08/29 12:35:15;;;;;;;0.6;0.6;;;;;;;;;;;;;
2021/08/29 12:37:40;;;;;;;0.7;0.7;;;;;;;;;;;;;
2021/08/29 12:40:06;;;;;;;0.5;0.5;;;;;;;;;;;;;
2021/08/29 12:42:31;;;;;;;0.5;0.5;;;;;;;;;;;;;
2021/08/29 12:44:55;;;;;;;0.6;0.6;;;;;;;;;;;;;
2021/08/29 12:47:21;;;;;;;0.7;0.7;;;;;;;;;;;;;
2021/08/29 12:49:46;;;;;;;0.6;0.6;;;;;;;;;;;;;
2021/08/29 12:52:11;;;;;;;0.9;0.8;;;;;;;;;;;;;
2021/08/29 12:54:36;;;;;;;1;0.8;;;;;;;;;;;;;
2021/08/29 12:57:01;;;;;;;0.9;0.9;;;;;;;;;;;;;
2021/08/29 12:59:27;;;;;;;0.6;0.6;;;;;;;;;;;;;
2021/08/29 13:01:51;;;;;;;0.7;0.7;;;;;;;;;;;;;
2021/08/29 13:04:16;;;;;;;0.9;0.6;;;;;;;;;;;;;
2021/08/29 13:06:41;;;;;;;0.6;0.6;;;;;;;;;;;;;
2021/08/29 13:09:06;;;;;;;0.5;0.5;;;;;;;;;;;;;
2021/08/29 13:11:32;;;;;;;0.7;0.7;;;;;;;;;;;;;
2021/08/29 13:13:57;;;;;;;0.7;0.7;;;;;;;;;;;;;
2021/08/29 13:16:22;;;;;;;1.7;0.9;;;;;;;;;;;;;
2021/08/29 13:18:47;;;;;;;0.8;0.8;;;;;;;;;;;;;
2021/08/29 13:21:13;;;;;;;1.2;0.7;;;;;;;;;;;;;
2021/08/29 13:23:38;;;;;;;0.8;0.6;;;;;;;;;;;;;
2021/08/29 13:26:03;;;;;;;0.7;0.7;;;;;;;;;;;;;
2021/08/29 13:28:28;;;;;;;0.9;0.8;;;;;;;;;;;;;
2021/08/29 13:30:53;;;;;;;0.8;0.7;;;;;;;;;;;;;
2021/08/29 13:33:19;;;;;;;0.7;0.7;;;;;;;;;;;;;
2021/08/29 13:35:43;;;;;;;0.7;0.7;;;;;;;;;;;;;
2021/08/29 13:38:08;;;;;;;1;0.7;;;;;;;;;;;;;
2021/08/29 13:40:33;;;;;;;0.6;0.6;;;;;;;;;;;;;
2021/08/29 13:42:59;;;;;;;0.7;0.7;;;;;;;;;;;;;
2021/08/29 13:45:24;;;;;;;0.9;0.7;;;;;;;;;;;;;
2021/08/29 13:47:49;;;;;;;0.6;0.6;;;;;;;;;;;;;
2021/08/29 13:50:14;;;;;;;0.8;0.6;;;;;;;;;;;;;
2021/08/29 13:52:42;;;;;;;0.6;0.6;;;;;;;;;;;;;
2021/08/29 13:55:05;;;;;;;0.7;0.7;;;;;;;;;;;;;
2021/08/29 13:57:30;;;;;;;0.6;0.6;;;;;;;;;;;;;
2021/08/29 13:59:55;;;;;;;0.5;0.5;;;;;;;;;;;;;
2021/08/29 14:02:20;;;;;;;0.9;0.7;;;;;;;;;;;;;
2021/08/29 14:04:46;;;;;;;0.5;0.5;;;;;;;;;;;;;
2021/08/29 14:07:10;;;;;;;0.7;0.7;;;;;;;;;;;;;
2021/08/29 14:09:36;;;;;;;0.6;0.6;;;;;;;;;;;;;
2021/08/29 14:12:01;;;;;;;0.7;0.7;;;;;;;;;;;;;
2021/08/29 14:14:26;;;;;;;0.7;0.6;;;;;;;;;;;;;
2021/08/29 14:16:51;;;;;;;0.6;0.6;;;;;;;;;;;;;
2021/08/29 14:19:16;;;;;;;0.8;0.8;;;;;;;;;;;;;
2021/08/29 14:21:41;;;;;;;0.9;0.7;;;;;;;;;;;;;
2021/08/29 14:24:07;;;;;;;0.7;0.7;;;;;;;;;;;;;
2021/08/29 14:26:32;;;;;;;0.8;0.8;;;;;;;;;;;;;
2021/08/29 14:28:57;;;;;;;1.1;1;;;;;;;;;;;;;
2021/08/29 14:31:22;;;;;;;0.9;0.9;;;;;;;;;;;;;
2021/08/29 14:33:47;;;;;;;1.2;0.8;;;;;;;;;;;;;
2021/08/29 14:36:12;;;;;;;1.2;1.1;;;;;;;;;;;;;
2021/08/29 14:38:38;;;;;;;1.7;1.1;;;;;;;;;;;;;
2021/08/29 14:41:03;;;;;;;1.1;1;;;;;;;;;;;;;
2021/08/29 14:43:28;;;;;;;0.8;0.8;;;;;;;;;;;;;
2021/08/29 14:45:53;;;;;;;1.2;0.7;;;;;;;;;;;;;
2021/08/29 14:48:19;;;;;;;0.8;0.7;;;;;;;;;;;;;
2021/08/29 14:50:44;;;;;;;0.7;0.7;;;;;;;;;;;;;
2021/08/29 14:53:09;;;;;;;0.7;0.7;;;;;;;;;;;;;
2021/08/29 14:55:34;;;;;;;0.6;0.6;;;;;;;;;;;;;
2021/08/29 14:57:59;;;;;;;0.8;0.8;;;;;;;;;;;;;
2021/08/29 15:00:24;;;;;;;0.6;0.6;;;;;;;;;;;;;
2021/08/29 15:02:50;;;;;;;2.4;1;;;;;;;;;;;;;
2021/08/29 15:05:15;;;;;;;0.5;0.5;;;;;;;;;;;;;
2021/08/29 15:07:40;;;;;;;0.8;0.8;;;;;;;;;;;;;
2021/08/29 15:10:05;;;;;;;0.7;0.7;;;;;;;;;;;;;
2021/08/29 15:12:30;;;;;;;0.6;0.6;;;;;;;;;;;;;
2021/08/29 15:14:55;;;;;;;1.1;1;;;;;;;;;;;;;
2021/08/29 15:17:20;;;;;;;1.1;1;;;;;;;;;;;;;
2021/08/29 15:19:45;;;;;;;1.6;1;;;;;;;;;;;;;
2021/08/29 15:22:11;;;;;;;1;0.9;;;;;;;;;;;;;
2021/08/29 15:24:36;;;;;;;0.8;0.8;;;;;;;;;;;;;
2021/08/29 15:27:01;;;;;;;0.7;0.7;;;;;;;;;;;;;
2021/08/29 15:29:26;;;;;;;1.1;0.7;;;;;;;;;;;;;
2021/08/29 15:31:51;;;;;;;0.9;0.7;;;;;;;;;;;;;
2021/08/29 15:34:16;;;;;;;0.7;0.7;;;;;;;;;;;;;
2021/08/29 15:36:42;;;;;;;0.8;0.8;;;;;;;;;;;;;
2021/08/29 15:39:07;;;;;;;0.8;0.8;;;;;;;;;;;;;
2021/08/29 15:41:32;;;;;;;1.3;1.1;;;;;;;;;;;;;
2021/08/29 15:43:57;;;;;;;0.7;0.7;;;;;;;;;;;;;
2021/08/29 15:46:22;;;;;;;0.9;0.8;;;;;;;;;;;;;
2021/08/29 15:48:47;;;;;;;1.3;0.9;;;;;;;;;;;;;
2021/08/29 15:51:12;;;;;;;0.7;0.7;;;;;;;;;;;;;
2021/08/29 15:53:39;;;;;;;1;0.9;;;;;;;;;;;;;
2021/08/29 15:56:04;;;;;;;1.1;1;;;;;;;;;;;;;
2021/08/29 15:58:37;;;;;;;0.8;0.8;;;;;;;;;;;;;
2021/08/29 16:01:02;;;;;;;0.9;0.9;;;;;;;;;;;;;
2021/08/29 16:03:27;;;;;;;1.3;1;;;;;;;;;;;;;
2021/08/29 16:05:54;;;;;;;1.7;1.2;;;;;;;;;;;;;
2021/08/29 16:08:19;;;;;;;1;0.9;;;;;;;;;;;;;
2021/08/29 16:10:44;;;;;;;1.2;1.1;;;;;;;;;;;;;
2021/08/29 16:13:09;;;;;;;1.2;1;;;;;;;;;;;;;
2021/08/29 16:15:34;;;;;;;1.5;1.3;;;;;;;;;;;;;
2021/08/29 16:17:59;;;;;;;1.3;1.2;;;;;;;;;;;;;
2021/08/29 16:20:26;;;;;;;1.4;1.3;;;;;;;;;;;;;
2021/08/29 16:22:51;;;;;;;1.5;1.4;;;;;;;;;;;;;
2021/08/29 16:25:16;;;;;;;2.8;1.7;;;;;;;;;;;;;
2021/08/29 16:27:41;;;;;;;1.7;1.4;;;;;;;;;;;;;
2021/08/29 16:30:06;;;;;;;1.6;1.4;;;;;;;;;;;;;
2021/08/29 16:32:32;;;;;;;1.7;1.6;;;;;;;;;;;;;
2021/08/29 16:34:57;;;;;;;1.7;1.5;;;;;;;;;;;;;
2021/08/29 16:37:23;;;;;;;1.5;1.4;;;;;;;;;;;;;
2021/08/29 16:39:48;;;;;;;1.8;1.6;;;;;;;;;;;;;
2021/08/29 16:42:14;;;;;;;2;1.7;;;;;;;;;;;;;
2021/08/29 16:44:39;;;;;;;2.5;1.7;;;;;;;;;;;;;
2021/08/29 16:47:05;;;;;;;1.8;1.4;;;;;;;;;;;;;
2021/08/29 16:49:30;;;;;;;1.7;1.6;;;;;;;;;;;;;
2021/08/29 16:54:20;;;;;;;2.2;2;;;;;;;;;;;;;
2021/08/29 16:56:45;;;;;;;3;1.8;;;;;;;;;;;;;
2021/08/29 16:59:10;;;;;;;2;1.8;;;;;;;;;;;;;
2021/08/29 17:01:35;;;;;;;2.2;1.8;;;;;;;;;;;;;
2021/08/29 17:04:00;;;;;;;2.7;2.1;;;;;;;;;;;;;
2021/08/29 17:06:26;;;;;;;2.6;2.1;;;;;;;;;;;;;
2021/08/29 17:08:50;;;;;;;1.9;1.7;;;;;;;;;;;;;
2021/08/29 17:11:16;;;;;;;1.8;1.7;;;;;;;;;;;;;
2021/08/29 17:13:41;;;;;;;2.4;1.8;;;;;;;;;;;;;
2021/08/29 17:16:06;;;;;;;1.7;1.5;;;;;;;;;;;;;
2021/08/29 17:18:31;;;;;;;2.7;1.6;;;;;;;;;;;;;
2021/08/29 17:20:56;;;;;;;2.6;1.7;;;;;;;;;;;;;
2021/08/29 17:23:22;;;;;;;1.7;1.6;;;;;;;;;;;;;
2021/08/29 17:25:47;;;;;;;2.3;1.6;;;;;;;;;;;;;
2021/08/29 17:28:12;;;;;;;1.9;1.5;;;;;;;;;;;;;
2021/08/29 17:30:37;;;;;;;2.2;1.5;;;;;;;;;;;;;
2021/08/29 17:33:02;;;;;;;2.7;1.7;;;;;;;;;;;;;
2021/08/29 17:35:27;;;;;;;2.3;1.7;;;;;;;;;;;;;
2021/08/29 17:37:53;;;;;;;2.4;2.2;;;;;;;;;;;;;
2021/08/29 17:40:18;;;;;;;2.6;2;;;;;;;;;;;;;
2021/08/29 17:42:42;;;;;;;2.1;1.7;;;;;;;;;;;;;
2021/08/29 17:45:08;;;;;;;2.7;1.7;;;;;;;;;;;;;
2021/08/29 17:47:33;;;;;;;1.8;1.6;;;;;;;;;;;;;
2021/08/29 17:49:58;;;;;;;2.3;1.8;;;;;;;;;;;;;
2021/08/29 17:52:23;;;;;;;1.9;1.3;;;;;;;;;;;;;
2021/08/29 17:54:48;;;;;;;1.6;1.5;;;;;;;;;;;;;
2021/08/29 17:57:13;;;;;;;2.4;1.6;;;;;;;;;;;;;
2021/08/29 17:59:38;;;;;;;2.7;1.6;;;;;;;;;;;;;
2021/08/29 18:02:03;;;;;;;3.9;1.9;;;;;;;;;;;;;
2021/08/29 18:04:28;;;;;;;8.2;5.7;;;;;;;;;;;;;
2021/08/29 18:06:55;;;;;;;2.4;2.2;;;;;;;;;;;;;
2021/08/29 18:09:19;;;;;;;3;2.5;;;;;;;;;;;;;
2021/08/29 18:11:44;;;;;;;3.9;2.9;;;;;;;;;;;;;
2021/08/29 18:14:09;;;;;;;4.2;2.9;;;;;;;;;;;;;
2021/08/29 18:16:34;;;;;;;3.5;2.6;;;;;;;;;;;;;
2021/08/29 18:18:59;;;;;;;4.1;3;;;;;;;;;;;;;
2021/08/29 18:21:24;;;;;;;4;3;;;;;;;;;;;;;
2021/08/29 18:23:49;;;;;;;4.7;3.7;;;;;;;;;;;;;
2021/08/29 18:26:22;;;;;;;3.9;3.1;;;;;;;;;;;;;
2021/08/29 18:28:43;;;;;;;3.4;2.9;;;;;;;;;;;;;
2021/08/29 18:31:08;;;;;;;4.3;2.6;;;;;;;;;;;;;
2021/08/29 18:33:33;;;;;;;3.3;2.1;;;;;;;;;;;;;
2021/08/29 18:36:00;;;;;;;2;1.7;;;;;;;;;;;;;
2021/08/29 18:38:23;;;;;;;2.3;1.6;;;;;;;;;;;;;
2021/08/29 18:40:48;;;;;;;1.5;1.4;;;;;;;;;;;;;
2021/08/29 18:43:14;;;;;;;2.3;1.6;;;;;;;;;;;;;
2021/08/29 18:45:38;;;;;;;1.7;1.6;;;;;;;;;;;;;
2021/08/29 18:48:04;;;;;;;3;2.1;;;;;;;;;;;;;